createdAt,value
2022-10-17T00:00:02.322Z,101208.62
2022-10-17T00:02:32.221Z,101214.13
2022-10-17T00:04:59.825Z,101219.69
2022-10-17T00:07:27.389Z,101215.69
2022-10-17T00:09:54.822Z,101211.22
2022-10-17T00:12:22.764Z,101209.28
2022-10-17T00:14:50.291Z,101209.03
2022-10-17T00:17:17.643Z,101204.31
2022-10-17T00:19:45.292Z,101214.41
2022-10-17T00:22:13.396Z,101214.66
2022-10-17T00:24:40.795Z,101208.81
2022-10-17T00:27:08.405Z,101203.25
2022-10-17T00:29:36.019Z,101214.34
2022-10-17T00:32:03.623Z,101219.44
2022-10-17T00:34:31.225Z,101218.97
2022-10-17T00:36:58.700Z,101211.22
2022-10-17T00:39:26.084Z,101220.06
2022-10-17T00:41:53.689Z,101224.81
2022-10-17T00:44:30.327Z,101225.06
2022-10-17T00:46:59.598Z,101220.09
2022-10-17T00:49:29.922Z,101221.28
2022-10-17T00:52:00.430Z,101212.41
2022-10-17T00:54:33.727Z,101219.41
2022-10-17T00:57:01.854Z,101216.31
2022-10-17T00:59:30.328Z,101219.78
2022-10-17T01:02:01.387Z,101216.78
2022-10-17T01:04:29.009Z,101208.81
2022-10-17T01:06:56.372Z,101208.31
2022-10-17T01:09:24.424Z,101210.31
2022-10-17T01:12:24.472Z,101208.16
2022-10-17T01:15:13.941Z,101218.47
2022-10-17T01:18:36.112Z,101216.00
2022-10-17T01:21:09.852Z,101212.72
2022-10-17T01:23:49.444Z,101214.06
2022-10-17T01:26:32.012Z,101216.59
2022-10-17T01:29:21.343Z,101217.09
2022-10-17T01:32:02.223Z,101214.94
2022-10-17T01:34:51.675Z,101205.50
2022-10-17T01:37:28.609Z,101200.66
2022-10-17T01:40:05.597Z,101203.97
2022-10-17T01:42:49.702Z,101217.09
2022-10-17T01:45:31.961Z,101209.63
2022-10-17T01:48:05.814Z,101203.31
2022-10-17T01:50:36.478Z,101205.91
2022-10-17T01:53:16.969Z,101211.69
2022-10-17T01:55:46.401Z,101212.66
2022-10-17T01:58:19.077Z,101216.06
2022-10-17T02:00:47.409Z,101219.66
2022-10-17T02:03:18.051Z,101212.87
2022-10-17T02:05:46.028Z,101214.56
2022-10-17T02:08:13.611Z,101219.66
2022-10-17T02:10:47.656Z,101218.47
2022-10-17T02:13:57.534Z,101219.41
2022-10-17T02:16:25.056Z,101216.87
2022-10-17T02:19:24.729Z,101223.31
2022-10-17T02:22:07.364Z,101221.78
2022-10-17T02:24:51.107Z,101218.81
2022-10-17T02:27:30.735Z,101225.00
2022-10-17T02:30:21.412Z,101219.69
2022-10-17T02:33:13.970Z,101226.56
2022-10-17T02:35:44.734Z,101230.03
2022-10-17T02:38:12.434Z,101221.59
2022-10-17T02:40:40.628Z,101224.56
2022-10-17T02:43:08.766Z,101235.75
2022-10-17T02:45:37.512Z,101234.94
2022-10-17T02:48:08.446Z,101225.97
2022-10-17T02:50:43.672Z,101232.25
2022-10-17T02:53:12.858Z,101234.41
2022-10-17T02:55:50.721Z,101237.09
2022-10-17T02:58:25.319Z,101243.59
2022-10-17T03:00:52.832Z,101242.50
2022-10-17T03:03:26.247Z,101241.41
2022-10-17T03:05:54.142Z,101255.53
2022-10-17T03:08:23.228Z,101249.66
2022-10-17T03:10:50.839Z,101245.66
2022-10-17T03:13:18.812Z,101247.00
2022-10-17T03:15:46.641Z,101238.13
2022-10-17T03:18:14.556Z,101244.59
2022-10-17T03:20:42.171Z,101255.56
2022-10-17T03:23:09.524Z,101253.41
2022-10-17T03:25:36.932Z,101250.81
2022-10-17T03:28:06.404Z,101254.81
2022-10-17T03:30:34.313Z,101255.00
2022-10-17T03:33:01.662Z,101258.75
2022-10-17T03:35:29.331Z,101262.16
2022-10-17T03:37:57.012Z,101265.41
2022-10-17T03:40:24.854Z,101268.81
2022-10-17T03:42:53.215Z,101277.44
2022-10-17T03:45:20.715Z,101283.50
2022-10-17T03:47:48.609Z,101281.03
2022-10-17T03:50:16.254Z,101284.41
2022-10-17T03:52:47.412Z,101287.53
2022-10-17T03:55:15.149Z,101286.28
2022-10-17T03:57:45.486Z,101288.69
2022-10-17T04:00:13.663Z,101292.72
2022-10-17T04:02:41.648Z,101285.06
2022-10-17T04:05:09.795Z,101290.75
2022-10-17T04:07:37.685Z,101285.13
2022-10-17T04:10:05.763Z,101293.78
2022-10-17T04:12:33.661Z,101295.72
2022-10-17T04:15:01.085Z,101297.97
2022-10-17T04:17:35.773Z,101293.38
2022-10-17T04:20:06.818Z,101288.66
2022-10-17T04:22:34.845Z,101297.47
2022-10-17T04:25:02.270Z,101300.19
2022-10-17T04:27:31.465Z,101300.50
2022-10-17T04:29:58.820Z,101311.09
2022-10-17T04:32:26.428Z,101313.41
2022-10-17T04:34:54.580Z,101321.69
2022-10-17T04:37:22.085Z,101315.53
2022-10-17T04:39:50.123Z,101307.72
2022-10-17T04:42:17.768Z,101323.66
2022-10-17T04:44:45.763Z,101324.97
2022-10-17T04:47:13.892Z,101317.38
2022-10-17T04:49:42.593Z,101331.38
2022-10-17T04:52:10.091Z,101317.91
2022-10-17T04:54:37.528Z,101323.34
2022-10-17T04:57:05.727Z,101322.00
2022-10-17T04:59:33.246Z,101324.47
2022-10-17T05:02:04.581Z,101327.00
2022-10-17T05:04:33.772Z,101325.41
2022-10-17T05:07:01.411Z,101329.44
2022-10-17T05:09:30.064Z,101331.94
2022-10-17T05:11:58.207Z,101333.88
2022-10-17T05:14:25.840Z,101344.91
2022-10-17T05:16:53.723Z,101332.16
2022-10-17T05:19:21.406Z,101340.66
2022-10-17T05:21:49.791Z,101338.06
2022-10-17T05:24:17.179Z,101344.06
2022-10-17T05:26:44.780Z,101354.50
2022-10-17T05:29:12.822Z,101356.28
2022-10-17T05:31:40.448Z,101355.37
2022-10-17T05:34:10.337Z,101361.09
2022-10-17T05:36:40.490Z,101365.81
2022-10-17T05:39:08.943Z,101357.00
2022-10-17T05:41:37.652Z,101365.69
2022-10-17T05:44:05.847Z,101374.34
2022-10-17T05:46:35.103Z,101378.06
2022-10-17T05:49:10.639Z,101375.50
2022-10-17T05:51:47.692Z,101388.03
2022-10-17T05:54:15.313Z,101381.16
2022-10-17T05:56:42.773Z,101397.00
2022-10-17T05:59:10.417Z,101393.50
2022-10-17T06:01:39.091Z,101394.31
2022-10-17T06:04:06.971Z,101399.63
2022-10-17T06:06:37.033Z,101402.87
2022-10-17T06:09:05.473Z,101409.41
2022-10-17T06:11:34.018Z,101415.81
2022-10-17T06:14:01.674Z,101417.72
2022-10-17T06:16:29.503Z,101409.94
2022-10-17T06:18:57.124Z,101414.88
2022-10-17T06:21:26.237Z,101425.47
2022-10-17T06:23:54.249Z,101423.47
2022-10-17T06:26:22.206Z,101419.13
2022-10-17T06:28:49.698Z,101427.66
2022-10-17T06:31:17.516Z,101430.09
2022-10-17T06:33:45.627Z,101432.06
2022-10-17T06:36:14.857Z,101424.94
2022-10-17T06:38:43.260Z,101436.31
2022-10-17T06:41:14.670Z,101431.94
2022-10-17T06:43:45.656Z,101442.72
2022-10-17T06:46:21.171Z,101442.31
2022-10-17T06:48:50.944Z,101452.22
2022-10-17T06:51:18.674Z,101445.06
2022-10-17T06:53:47.261Z,101445.47
2022-10-17T06:56:15.903Z,101448.50
2022-10-17T06:58:44.183Z,101455.59
2022-10-17T07:01:13.254Z,101460.87
2022-10-17T07:03:41.308Z,101462.03
2022-10-17T07:06:11.283Z,101458.25
2022-10-17T07:08:43.549Z,101460.56
2022-10-17T07:11:12.226Z,101470.00
2022-10-17T07:13:40.483Z,101470.87
2022-10-17T07:16:08.235Z,101463.09
2022-10-17T07:18:36.658Z,101462.56
2022-10-17T07:21:04.177Z,101474.97
2022-10-17T07:23:32.051Z,101471.63
2022-10-17T07:26:08.975Z,101470.69
2022-10-17T07:28:40.160Z,101467.75
2022-10-17T07:31:17.112Z,101472.69
2022-10-17T07:36:18.285Z,101471.84
2022-10-17T07:38:45.755Z,101468.94
2022-10-17T07:41:17.799Z,101465.44
2022-10-17T07:43:49.346Z,101477.69
2022-10-17T07:46:17.586Z,101464.50
2022-10-17T07:48:45.303Z,101478.53
2022-10-17T07:51:13.005Z,101480.34
2022-10-17T07:53:42.734Z,101476.25
2022-10-17T07:56:13.006Z,101482.38
2022-10-17T07:58:40.424Z,101478.00
2022-10-17T08:01:14.806Z,101476.22
2022-10-17T08:03:44.798Z,101478.66
2022-10-17T08:06:12.694Z,101476.59
2022-10-17T08:08:40.694Z,101481.88
2022-10-17T08:11:11.103Z,101488.56
2022-10-17T08:13:39.034Z,101481.13
2022-10-17T08:16:09.016Z,101488.38
2022-10-17T08:18:37.054Z,101490.53
2022-10-17T08:21:08.599Z,101481.88
2022-10-17T08:23:37.009Z,101489.03
2022-10-17T08:26:08.152Z,101488.81
2022-10-17T08:28:36.575Z,101496.81
2022-10-17T08:31:12.222Z,101500.66
2022-10-17T08:33:40.568Z,101489.75
2022-10-17T08:36:09.348Z,101490.31
2022-10-17T08:38:38.490Z,101492.66
2022-10-17T08:41:49.803Z,101494.16
2022-10-17T08:44:46.438Z,101489.09
2022-10-17T08:47:24.632Z,101495.97
2022-10-17T08:49:55.752Z,101494.19
2022-10-17T08:52:38.016Z,101485.22
2022-10-17T08:55:15.240Z,101491.47
2022-10-17T08:57:43.425Z,101499.53
2022-10-17T09:00:21.451Z,101492.88
2022-10-17T09:02:58.156Z,101493.22
2022-10-17T09:05:55.405Z,101494.00
2022-10-17T09:09:03.845Z,101491.28
2022-10-17T09:11:33.981Z,101490.56
2022-10-17T09:14:26.590Z,101481.16
2022-10-17T09:17:08.429Z,101485.19
2022-10-17T09:19:39.349Z,101491.13
2022-10-17T09:22:13.389Z,101482.59
2022-10-17T09:24:48.528Z,101485.97
2022-10-17T09:27:21.743Z,101486.53
2022-10-17T09:29:55.116Z,101483.06
2022-10-17T09:32:24.858Z,101487.34
2022-10-17T09:34:53.566Z,101489.16
2022-10-17T09:37:26.327Z,101480.13
2022-10-17T09:39:53.987Z,101488.06
2022-10-17T09:42:24.007Z,101492.41
2022-10-17T09:44:57.925Z,101486.16
2022-10-17T09:47:41.390Z,101491.94
2022-10-17T09:50:21.922Z,101487.84
2022-10-17T09:52:50.776Z,101482.81
2022-10-17T09:55:22.555Z,101478.94
2022-10-17T09:57:58.239Z,101479.00
2022-10-17T10:00:27.042Z,101470.63
2022-10-17T10:03:15.289Z,101477.03
2022-10-17T10:05:58.322Z,101472.84
2022-10-17T10:08:35.804Z,101476.44
2022-10-17T10:11:13.423Z,101469.69
2022-10-17T10:13:42.812Z,101473.13
2022-10-17T10:16:20.886Z,101472.09
2022-10-17T10:18:50.927Z,101471.00
2022-10-17T10:21:27.322Z,101475.16
2022-10-17T10:24:10.568Z,101463.97
2022-10-17T10:26:44.366Z,101467.37
2022-10-17T10:29:25.199Z,101465.97
2022-10-17T10:31:53.432Z,101462.16
2022-10-17T10:34:26.877Z,101463.06
2022-10-17T10:37:05.886Z,101457.37
2022-10-17T10:39:37.439Z,101460.19
2022-10-17T10:42:07.801Z,101457.75
2022-10-17T10:44:36.517Z,101448.34
2022-10-17T10:47:20.001Z,101460.47
2022-10-17T10:49:47.771Z,101462.28
2022-10-17T10:52:45.669Z,101457.44
2022-10-17T10:55:27.305Z,101459.16
2022-10-17T10:57:58.666Z,101456.50
2022-10-17T11:00:28.261Z,101448.53
2022-10-17T11:03:01.215Z,101450.25
2022-10-17T11:05:51.673Z,101450.16
2022-10-17T11:08:43.462Z,101452.78
2022-10-17T11:11:29.572Z,101454.91
2022-10-17T11:14:19.887Z,101443.50
2022-10-17T11:17:02.621Z,101443.84
2022-10-17T11:19:47.440Z,101435.53
2022-10-17T11:22:29.263Z,101433.97
2022-10-17T11:25:12.214Z,101432.31
2022-10-17T11:27:39.856Z,101438.00
2022-10-17T11:30:09.483Z,101438.00
2022-10-17T11:32:41.837Z,101433.34
2022-10-17T11:35:27.445Z,101429.78
2022-10-17T11:38:12.977Z,101425.59
2022-10-17T11:40:43.333Z,101424.88
2022-10-17T11:43:19.869Z,101424.44
2022-10-17T11:45:52.833Z,101418.00
2022-10-17T11:48:34.970Z,101411.44
2022-10-17T11:54:23.434Z,101406.22
2022-10-17T11:57:13.861Z,101415.91
2022-10-17T11:59:47.886Z,101413.09
2022-10-17T12:02:23.938Z,101410.84
2022-10-17T12:04:54.848Z,101412.78
2022-10-17T12:07:46.703Z,101406.34
2022-10-17T12:10:47.587Z,101408.06
2022-10-17T12:13:38.282Z,101406.56
2022-10-17T12:16:21.263Z,101403.97
2022-10-17T12:18:51.376Z,101403.37
2022-10-17T12:21:19.066Z,101399.13
2022-10-17T12:23:53.830Z,101391.84
2022-10-17T12:26:28.966Z,101381.66
2022-10-17T12:28:57.168Z,101373.13
2022-10-17T12:31:32.528Z,101385.41
2022-10-17T12:34:02.742Z,101387.28
2022-10-17T12:36:30.214Z,101388.34
2022-10-17T12:39:03.703Z,101384.78
2022-10-17T12:41:40.725Z,101371.28
2022-10-17T12:44:14.385Z,101380.62
2022-10-17T12:46:45.840Z,101384.16
2022-10-17T12:49:39.118Z,101388.97
2022-10-17T12:52:45.100Z,101381.97
2022-10-17T12:55:15.114Z,101379.37
2022-10-17T12:58:01.690Z,101374.50
2022-10-17T13:00:43.833Z,101371.66
2022-10-17T13:03:22.137Z,101367.38
2022-10-17T13:05:53.136Z,101372.53
2022-10-17T13:08:33.103Z,101364.44
2022-10-17T13:11:01.270Z,101371.47
2022-10-17T13:13:38.352Z,101369.69
2022-10-17T13:16:05.877Z,101368.25
2022-10-17T13:18:34.358Z,101364.28
2022-10-17T13:21:03.520Z,101369.69
2022-10-17T13:23:33.801Z,101365.28
2022-10-17T13:26:16.564Z,101358.31
2022-10-17T13:28:44.382Z,101355.44
2022-10-17T13:31:31.881Z,101358.56
2022-10-17T13:34:01.729Z,101356.59
2022-10-17T13:36:30.581Z,101358.56
2022-10-17T13:39:00.021Z,101360.00
2022-10-17T13:41:37.173Z,101358.41
2022-10-17T13:44:14.378Z,101363.59
2022-10-17T13:46:43.132Z,101360.88
2022-10-17T13:49:23.317Z,101356.03
2022-10-17T13:51:54.595Z,101353.91
2022-10-17T13:54:42.914Z,101355.91
2022-10-17T13:57:30.582Z,101356.25
2022-10-17T14:00:10.061Z,101356.50
2022-10-17T14:02:41.063Z,101354.47
2022-10-17T14:05:17.218Z,101356.56
2022-10-17T14:10:42.906Z,101345.22
2022-10-17T14:13:24.253Z,101354.88
2022-10-17T14:15:54.057Z,101357.50
2022-10-17T14:18:25.278Z,101344.31
2022-10-17T14:23:43.747Z,101344.19
2022-10-17T14:26:22.681Z,101340.72
2022-10-17T14:29:14.538Z,101341.34
2022-10-17T14:31:42.176Z,101337.19
2022-10-17T14:34:21.003Z,101342.66
2022-10-17T14:36:51.669Z,101346.31
2022-10-17T14:39:22.464Z,101348.84
2022-10-17T14:41:51.314Z,101351.56
2022-10-17T14:44:30.542Z,101349.97
2022-10-17T14:47:30.228Z,101345.81
2022-10-17T14:49:52.208Z,101354.91
2022-10-17T14:52:19.725Z,101347.75
2022-10-17T14:54:48.331Z,101342.66
2022-10-17T14:57:38.807Z,101345.03
2022-10-17T15:00:06.805Z,101346.63
2022-10-17T15:02:34.559Z,101336.94
2022-10-17T15:05:02.032Z,101342.13
2022-10-17T15:07:29.823Z,101344.53
2022-10-17T15:09:57.203Z,101347.94
2022-10-17T15:12:25.677Z,101347.66
2022-10-17T15:14:54.131Z,101343.13
2022-10-17T15:17:26.321Z,101343.06
2022-10-17T15:19:54.057Z,101343.22
2022-10-17T15:22:21.914Z,101345.59
2022-10-17T15:24:49.620Z,101342.66
2022-10-17T15:27:22.759Z,101348.34
2022-10-17T15:29:51.516Z,101348.28
2022-10-17T15:32:19.374Z,101355.47
2022-10-17T15:34:46.814Z,101348.28
2022-10-17T15:37:21.946Z,101348.97
2022-10-17T15:39:54.573Z,101349.66
2022-10-17T15:42:23.501Z,101359.06
2022-10-17T15:44:51.238Z,101359.75
2022-10-17T15:47:31.475Z,101363.91
2022-10-17T15:50:00.521Z,101371.47
2022-10-17T15:52:28.122Z,101371.28
2022-10-17T15:54:57.375Z,101366.75
2022-10-17T15:57:29.726Z,101367.97
2022-10-17T15:59:59.022Z,101373.19
2022-10-17T16:02:26.852Z,101370.97
2022-10-17T16:04:54.453Z,101368.56
2022-10-17T16:07:21.867Z,101382.72
2022-10-17T16:09:49.212Z,101380.31
2022-10-17T16:12:27.181Z,101384.94
2022-10-17T16:14:54.882Z,101372.53
2022-10-17T16:17:22.526Z,101381.63
2022-10-17T16:19:50.019Z,101379.81
2022-10-17T16:22:26.801Z,101393.19
2022-10-17T16:25:07.242Z,101390.00
2022-10-17T16:27:35.015Z,101391.06
2022-10-17T16:30:06.715Z,101393.22
2022-10-17T16:32:34.320Z,101393.47
2022-10-17T16:35:01.737Z,101399.09
2022-10-17T16:37:29.403Z,101396.00
2022-10-17T16:39:56.788Z,101386.81
2022-10-17T16:42:24.233Z,101406.53
2022-10-17T16:44:51.895Z,101411.09
2022-10-17T16:47:19.644Z,101409.00
2022-10-17T16:49:47.129Z,101413.69
2022-10-17T16:52:14.759Z,101421.69
2022-10-17T16:54:42.087Z,101407.44
2022-10-17T16:57:09.519Z,101417.84
2022-10-17T16:59:37.249Z,101409.31
2022-10-17T17:02:04.734Z,101418.91
2022-10-17T17:04:32.359Z,101411.06
2022-10-17T17:07:00.464Z,101413.28
2022-10-17T17:09:27.988Z,101410.69
2022-10-17T17:11:55.667Z,101416.59
2022-10-17T17:14:23.848Z,101413.84
2022-10-17T17:16:52.185Z,101423.69
2022-10-17T17:19:20.908Z,101427.09
2022-10-17T17:21:51.245Z,101421.38
2022-10-17T17:24:23.997Z,101429.81
2022-10-17T17:26:53.836Z,101428.53
2022-10-17T17:29:22.938Z,101425.97
2022-10-17T17:31:50.677Z,101428.72
2022-10-17T17:34:18.634Z,101426.09
2022-10-17T17:36:46.494Z,101426.69
2022-10-17T17:39:15.697Z,101436.25
2022-10-17T17:41:44.428Z,101427.38
2022-10-17T17:44:16.409Z,101426.50
2022-10-17T17:46:45.696Z,101427.88
2022-10-17T17:49:13.711Z,101426.06
2022-10-17T17:51:42.191Z,101431.16
2022-10-17T17:54:13.127Z,101416.94
2022-10-17T17:56:40.778Z,101426.91
2022-10-17T17:59:10.840Z,101430.50
2022-10-17T18:01:39.390Z,101430.34
2022-10-17T18:04:08.845Z,101438.84
2022-10-17T18:06:37.834Z,101439.81
2022-10-17T18:09:06.354Z,101434.22
2022-10-17T18:11:34.411Z,101436.00
2022-10-17T18:14:08.081Z,101432.72
2022-10-17T18:16:37.513Z,101434.53
2022-10-17T18:19:07.365Z,101433.56
2022-10-17T18:21:36.397Z,101423.22
2022-10-17T18:24:07.160Z,101431.28
2022-10-17T18:26:35.438Z,101431.22
2022-10-17T18:29:04.034Z,101420.53
2022-10-17T18:31:36.287Z,101424.88
2022-10-17T18:34:05.205Z,101432.69
2022-10-17T18:36:34.614Z,101431.47
2022-10-17T18:39:02.557Z,101427.59
2022-10-17T18:41:30.700Z,101427.03
2022-10-17T18:43:58.911Z,101430.78
2022-10-17T18:46:32.148Z,101429.81
2022-10-17T18:49:00.420Z,101428.12
2022-10-17T18:51:28.683Z,101431.22
2022-10-17T18:53:59.027Z,101433.19
2022-10-17T18:56:27.385Z,101434.31
2022-10-17T18:58:55.689Z,101431.56
2022-10-17T19:01:27.528Z,101426.03
2022-10-17T19:03:58.373Z,101427.47
2022-10-17T19:06:29.238Z,101435.00
2022-10-17T19:08:57.325Z,101421.13
2022-10-17T19:11:26.180Z,101428.56
2022-10-17T19:13:55.933Z,101433.19
2022-10-17T19:16:27.708Z,101437.63
2022-10-17T19:19:00.582Z,101434.41
2022-10-17T19:21:28.611Z,101439.47
2022-10-17T19:23:58.830Z,101435.88
2022-10-17T19:26:28.090Z,101430.91
2022-10-17T19:28:56.083Z,101432.28
2022-10-17T19:31:27.041Z,101434.72
2022-10-17T19:33:55.769Z,101439.28
2022-10-17T19:36:30.619Z,101435.97
2022-10-17T19:39:03.687Z,101440.53
2022-10-17T19:41:31.937Z,101438.84
2022-10-17T19:44:00.564Z,101427.06
2022-10-17T19:46:29.715Z,101431.00
2022-10-17T19:48:57.767Z,101422.88
2022-10-17T19:51:26.338Z,101432.91
2022-10-17T19:53:56.088Z,101427.53
2022-10-17T19:56:25.455Z,101444.31
2022-10-17T19:58:54.431Z,101437.31
2022-10-17T20:01:25.268Z,101428.75
2022-10-17T20:03:54.474Z,101436.13
2022-10-17T20:06:22.539Z,101442.22
2022-10-17T20:08:50.388Z,101437.22
2022-10-17T20:11:21.325Z,101433.22
2022-10-17T20:13:49.600Z,101438.72
2022-10-17T20:16:21.425Z,101441.25
2022-10-17T20:18:51.022Z,101450.03
2022-10-17T20:21:27.276Z,101444.16
2022-10-17T20:23:54.978Z,101439.81
2022-10-17T20:26:33.656Z,101441.41
2022-10-17T20:29:11.030Z,101443.59
2022-10-17T20:31:39.444Z,101440.28
2022-10-17T20:34:07.367Z,101445.62
2022-10-17T20:36:37.543Z,101439.00
2022-10-17T20:39:06.116Z,101441.78
2022-10-17T20:41:33.781Z,101439.91
2022-10-17T20:44:01.156Z,101439.91
2022-10-17T20:46:37.200Z,101434.16
2022-10-17T20:49:06.592Z,101435.94
2022-10-17T20:51:34.942Z,101432.50
2022-10-17T20:54:03.084Z,101431.59
2022-10-17T20:56:32.312Z,101433.13
2022-10-17T20:59:05.528Z,101426.53
2022-10-17T21:01:34.590Z,101422.69
2022-10-17T21:04:21.388Z,101436.66
2022-10-17T21:06:52.091Z,101432.69
2022-10-17T21:09:20.232Z,101429.56
2022-10-17T21:11:48.535Z,101436.03
2022-10-17T21:14:16.770Z,101434.28
2022-10-17T21:16:44.191Z,101434.78
2022-10-17T21:19:12.312Z,101435.66
2022-10-17T21:21:42.675Z,101436.28
2022-10-17T21:24:13.632Z,101432.59
2022-10-17T21:26:42.330Z,101434.31
2022-10-17T21:29:10.328Z,101436.38
2022-10-17T21:31:38.876Z,101443.28
2022-10-17T21:34:21.254Z,101437.13
2022-10-17T21:36:48.930Z,101438.28
2022-10-17T21:39:16.964Z,101435.47
2022-10-17T21:41:44.450Z,101435.44
2022-10-17T21:44:19.856Z,101435.06
2022-10-17T21:46:48.006Z,101431.66
2022-10-17T21:49:18.251Z,101439.22
2022-10-17T21:51:47.467Z,101430.66
2022-10-17T21:54:16.159Z,101440.22
2022-10-17T21:56:43.570Z,101436.78
2022-10-17T21:59:10.978Z,101431.91
2022-10-17T22:01:40.685Z,101429.66
2022-10-17T22:04:11.482Z,101432.03
2022-10-17T22:06:41.007Z,101433.16
2022-10-17T22:09:13.261Z,101429.56
2022-10-17T22:11:41.118Z,101429.81
2022-10-17T22:14:13.135Z,101425.03
2022-10-17T22:16:40.902Z,101425.25
2022-10-17T22:19:08.933Z,101419.53
2022-10-17T22:21:37.582Z,101421.91
2022-10-17T22:24:07.141Z,101418.03
2022-10-17T22:26:36.215Z,101422.94
2022-10-17T22:29:05.551Z,101418.69
2022-10-17T22:31:33.308Z,101419.09
2022-10-17T22:34:00.665Z,101422.09
2022-10-17T22:36:28.540Z,101418.75
2022-10-17T22:38:55.914Z,101415.63
2022-10-17T22:41:23.239Z,101416.91
2022-10-17T22:43:50.855Z,101419.81
2022-10-17T22:46:18.400Z,101421.53
2022-10-17T22:48:45.733Z,101417.72
2022-10-17T22:51:13.723Z,101419.47
2022-10-17T22:53:41.342Z,101416.97
2022-10-17T22:56:14.375Z,101422.38
2022-10-17T22:58:42.060Z,101425.00
2022-10-17T23:01:13.031Z,101421.81
2022-10-17T23:03:40.537Z,101426.53
2022-10-17T23:06:08.159Z,101418.94
2022-10-17T23:08:35.572Z,101405.91
2022-10-17T23:11:02.990Z,101413.22
2022-10-17T23:13:30.589Z,101409.41
2022-10-17T23:15:57.957Z,101407.16
2022-10-17T23:18:26.299Z,101404.47
2022-10-17T23:20:54.568Z,101390.66
2022-10-17T23:23:22.230Z,101394.09
2022-10-17T23:25:50.483Z,101394.94
2022-10-17T23:28:18.281Z,101398.81
2022-10-17T23:30:45.788Z,101394.91
2022-10-17T23:33:13.927Z,101390.25
2022-10-17T23:35:42.069Z,101392.84
2022-10-17T23:38:09.888Z,101389.59
2022-10-17T23:40:37.343Z,101389.28
2022-10-17T23:43:05.426Z,101391.97
2022-10-17T23:45:36.117Z,101393.59
2022-10-17T23:48:05.428Z,101389.22
2022-10-17T23:50:33.063Z,101393.19
2022-10-17T23:53:00.466Z,101385.06
2022-10-17T23:55:27.818Z,101375.47
2022-10-17T23:57:55.449Z,101380.25
